createdAt,value
2022-07-27T00:00:48.005Z,100.00
2022-07-27T00:03:14.707Z,100.00
2022-07-27T00:05:42.027Z,100.00
2022-07-27T00:08:08.763Z,100.00
2022-07-27T00:10:36.666Z,100.00
2022-07-27T00:13:04.556Z,100.00
2022-07-27T00:15:31.325Z,100.00
2022-07-27T00:18:01.185Z,100.00
2022-07-27T00:20:29.176Z,100.00
2022-07-27T00:22:56.387Z,100.00
2022-07-27T00:25:23.658Z,100.00
2022-07-27T00:27:50.592Z,100.00
2022-07-27T00:30:17.424Z,100.00
2022-07-27T00:32:44.267Z,100.00
2022-07-27T00:35:11.967Z,100.00
2022-07-27T00:37:38.877Z,100.00
2022-07-27T00:40:06.822Z,100.00
2022-07-27T00:42:34.065Z,100.00
2022-07-27T00:45:02.401Z,100.00
2022-07-27T00:47:29.149Z,100.00
2022-07-27T00:49:55.894Z,99.73
2022-07-27T00:52:23.109Z,99.96
2022-07-27T00:54:50.107Z,100.00
2022-07-27T00:57:17.247Z,100.00
2022-07-27T00:59:44.072Z,100.00
2022-07-27T01:02:12.151Z,100.00
2022-07-27T01:04:39.451Z,100.00
2022-07-27T01:07:07.274Z,100.00
2022-07-27T01:09:53.771Z,100.00
2022-07-27T01:12:21.445Z,100.00
2022-07-27T01:14:49.784Z,100.00
2022-07-27T01:17:17.603Z,100.00
2022-07-27T01:19:44.810Z,100.00
2022-07-27T01:22:12.444Z,100.00
2022-07-27T01:24:39.602Z,100.00
2022-07-27T01:27:07.147Z,100.00
2022-07-27T01:29:35.234Z,100.00
2022-07-27T01:32:02.641Z,100.00
2022-07-27T01:34:29.308Z,100.00
2022-07-27T01:36:55.929Z,100.00
2022-07-27T01:39:22.542Z,100.00
2022-07-27T01:41:49.085Z,100.00
2022-07-27T01:44:15.898Z,100.00
2022-07-27T01:46:42.485Z,100.00
2022-07-27T01:49:09.649Z,100.00
2022-07-27T01:51:36.454Z,100.00
2022-07-27T01:54:03.256Z,100.00
2022-07-27T01:56:29.834Z,100.00
2022-07-27T01:58:56.507Z,100.00
2022-07-27T02:01:23.213Z,100.00
2022-07-27T02:03:49.718Z,100.00
2022-07-27T02:06:16.213Z,100.00
2022-07-27T02:08:42.784Z,100.00
2022-07-27T02:11:28.276Z,100.00
2022-07-27T02:13:54.828Z,100.00
2022-07-27T02:16:21.488Z,100.00
2022-07-27T02:18:51.029Z,100.00
2022-07-27T02:21:17.621Z,100.00
2022-07-27T02:23:46.935Z,100.00
2022-07-27T02:26:13.570Z,100.00
2022-07-27T02:28:40.229Z,100.00
2022-07-27T02:31:06.893Z,100.00
2022-07-27T02:33:34.872Z,100.00
2022-07-27T02:36:01.774Z,100.00
2022-07-27T02:38:28.544Z,100.00
2022-07-27T02:40:55.018Z,100.00
2022-07-27T02:43:21.657Z,100.00
2022-07-27T02:45:49.785Z,100.00
2022-07-27T02:48:16.464Z,100.00
2022-07-27T02:50:43.070Z,100.00
2022-07-27T02:53:09.823Z,100.00
2022-07-27T02:55:36.307Z,100.00
2022-07-27T02:58:02.855Z,100.00
2022-07-27T03:00:29.609Z,100.00
2022-07-27T03:02:56.284Z,100.00
2022-07-27T03:05:22.935Z,100.00
2022-07-27T03:07:49.598Z,100.00
2022-07-27T03:10:16.197Z,100.00
2022-07-27T03:12:44.225Z,100.00
2022-07-27T03:15:11.351Z,100.00
2022-07-27T03:17:38.043Z,100.00
2022-07-27T03:20:05.310Z,100.00
2022-07-27T03:22:35.415Z,100.00
2022-07-27T03:25:02.053Z,100.00
2022-07-27T03:27:29.313Z,100.00
2022-07-27T03:29:56.666Z,100.00
2022-07-27T03:32:23.447Z,100.00
2022-07-27T03:34:50.071Z,100.00
2022-07-27T03:37:17.335Z,100.00
2022-07-27T03:39:44.095Z,100.00
2022-07-27T03:42:12.610Z,100.00
2022-07-27T03:44:39.399Z,100.00
2022-07-27T03:47:06.121Z,100.00
2022-07-27T03:49:32.786Z,100.00
2022-07-27T03:51:59.500Z,100.00
2022-07-27T03:54:26.351Z,100.00
2022-07-27T03:56:53.224Z,99.25
2022-07-27T03:59:19.943Z,99.77
2022-07-27T04:01:47.407Z,99.71
2022-07-27T04:04:14.318Z,100.00
2022-07-27T04:06:40.915Z,100.00
2022-07-27T04:09:08.731Z,100.00
2022-07-27T04:11:36.976Z,100.00
2022-07-27T04:14:05.322Z,100.00
2022-07-27T04:16:36.016Z,100.00
2022-07-27T04:19:03.178Z,100.00
2022-07-27T04:21:33.698Z,100.00
2022-07-27T04:24:03.893Z,100.00
2022-07-27T04:26:31.021Z,99.61
2022-07-27T04:28:57.726Z,100.00
2022-07-27T04:31:24.642Z,100.00
2022-07-27T04:33:51.570Z,99.97
2022-07-27T04:36:18.402Z,100.00
2022-07-27T04:38:45.053Z,100.00
2022-07-27T04:41:11.979Z,100.00
2022-07-27T04:43:38.986Z,99.57
2022-07-27T04:46:06.015Z,100.00
2022-07-27T04:48:34.238Z,100.00
2022-07-27T04:51:01.899Z,100.00
2022-07-27T04:53:28.493Z,100.00
2022-07-27T04:55:55.097Z,100.00
2022-07-27T04:58:21.637Z,100.00
2022-07-27T05:00:48.463Z,100.00
2022-07-27T05:03:15.399Z,100.00
2022-07-27T05:05:49.748Z,99.79
2022-07-27T05:08:17.476Z,98.46
2022-07-27T05:10:44.166Z,95.43
2022-07-27T05:13:10.841Z,95.02
2022-07-27T05:15:55.205Z,94.84
2022-07-27T05:18:23.158Z,95.20
2022-07-27T05:20:50.567Z,93.61
2022-07-27T05:23:17.780Z,93.78
2022-07-27T05:25:44.464Z,94.69
2022-07-27T05:28:14.606Z,93.98
2022-07-27T05:30:41.294Z,93.27
2022-07-27T05:33:08.042Z,92.28
2022-07-27T05:35:34.974Z,92.14
2022-07-27T05:38:01.591Z,91.77
2022-07-27T05:40:28.430Z,92.24
2022-07-27T05:42:55.602Z,92.59
2022-07-27T05:45:22.717Z,92.63
2022-07-27T05:47:49.518Z,92.41
2022-07-27T05:50:18.093Z,92.83
2022-07-27T05:52:45.869Z,91.14
2022-07-27T05:55:12.801Z,91.37
2022-07-27T05:57:41.339Z,90.92
2022-07-27T06:00:09.115Z,90.85
2022-07-27T06:02:36.308Z,89.22
2022-07-27T06:05:03.216Z,88.96
2022-07-27T06:07:49.418Z,89.49
2022-07-27T06:10:17.187Z,89.28
2022-07-27T06:12:45.150Z,89.33
2022-07-27T06:15:13.516Z,87.79
2022-07-27T06:17:40.280Z,85.59
2022-07-27T06:20:08.264Z,85.37
2022-07-27T06:22:52.003Z,83.89
2022-07-27T06:25:21.651Z,81.58
2022-07-27T06:27:48.917Z,81.99
2022-07-27T06:30:17.605Z,82.47
2022-07-27T06:32:44.964Z,81.69
2022-07-27T06:35:13.838Z,81.16
2022-07-27T06:37:44.256Z,79.95
2022-07-27T06:40:13.361Z,80.54
2022-07-27T06:42:41.172Z,80.83
2022-07-27T06:45:09.421Z,81.41
2022-07-27T06:47:49.896Z,80.63
2022-07-27T06:50:20.599Z,79.28
2022-07-27T06:52:48.657Z,79.66
2022-07-27T06:55:15.851Z,79.73
2022-07-27T06:57:43.220Z,79.99
2022-07-27T07:00:10.903Z,79.47
2022-07-27T07:02:37.863Z,78.96
2022-07-27T07:05:04.798Z,78.68
2022-07-27T07:07:31.948Z,77.65
2022-07-27T07:09:58.744Z,77.22
2022-07-27T07:12:25.839Z,76.19
2022-07-27T07:14:52.811Z,76.37
2022-07-27T07:17:20.063Z,75.12
2022-07-27T07:19:46.828Z,75.13
2022-07-27T07:22:13.663Z,73.72
2022-07-27T07:24:40.308Z,73.95
2022-07-27T07:27:07.063Z,73.27
2022-07-27T07:29:33.710Z,73.11
2022-07-27T07:32:00.406Z,72.49
2022-07-27T07:34:27.583Z,72.75
2022-07-27T07:36:54.131Z,72.53
2022-07-27T07:39:20.773Z,71.56
2022-07-27T07:41:48.369Z,69.95
2022-07-27T07:44:14.903Z,70.60
2022-07-27T07:46:43.971Z,70.04
2022-07-27T07:49:13.853Z,69.98
2022-07-27T07:51:40.786Z,69.93
2022-07-27T07:54:07.430Z,69.93
2022-07-27T07:56:34.014Z,69.00
2022-07-27T07:59:01.469Z,70.09
2022-07-27T08:01:28.336Z,69.95
2022-07-27T08:03:55.376Z,68.91
2022-07-27T08:06:22.347Z,70.11
2022-07-27T08:08:49.128Z,69.10
2022-07-27T08:11:16.009Z,69.71
2022-07-27T08:13:42.826Z,69.90
2022-07-27T08:16:09.487Z,69.70
2022-07-27T08:18:36.130Z,68.80
2022-07-27T08:21:02.785Z,69.33
2022-07-27T08:23:31.937Z,69.07
2022-07-27T08:26:00.083Z,69.08
2022-07-27T08:28:34.796Z,69.19
2022-07-27T08:31:14.801Z,69.72
2022-07-27T08:33:45.478Z,69.60
2022-07-27T08:36:12.086Z,70.50
2022-07-27T08:38:38.880Z,70.46
2022-07-27T08:41:07.416Z,69.04
2022-07-27T08:43:34.219Z,69.04
2022-07-27T08:46:01.509Z,69.18
2022-07-27T08:48:31.021Z,69.13
2022-07-27T08:50:57.972Z,67.05
2022-07-27T08:53:25.434Z,67.60
2022-07-27T08:55:52.523Z,67.02
2022-07-27T08:58:19.348Z,67.43
2022-07-27T09:00:48.526Z,67.35
2022-07-27T09:03:20.058Z,67.81
2022-07-27T09:05:53.029Z,67.14
2022-07-27T09:08:25.054Z,66.54
2022-07-27T09:10:54.717Z,66.53
2022-07-27T09:13:28.477Z,65.81
2022-07-27T09:16:23.018Z,65.07
2022-07-27T09:18:59.680Z,64.82
2022-07-27T09:21:26.378Z,63.78
2022-07-27T09:24:18.021Z,61.33
2022-07-27T09:27:02.137Z,61.77
2022-07-27T09:29:34.474Z,60.82
2022-07-27T09:32:01.173Z,62.40
2022-07-27T09:34:31.029Z,61.90
2022-07-27T09:36:58.880Z,62.30
2022-07-27T09:39:27.749Z,63.22
2022-07-27T09:41:57.038Z,62.18
2022-07-27T09:44:42.535Z,62.53
2022-07-27T09:47:30.914Z,62.23
2022-07-27T09:50:17.532Z,62.88
2022-07-27T09:52:44.960Z,62.93
2022-07-27T09:55:11.921Z,63.77
2022-07-27T09:57:56.215Z,63.24
2022-07-27T10:00:23.500Z,63.31
2022-07-27T10:02:53.402Z,62.02
2022-07-27T10:05:22.923Z,61.70
2022-07-27T10:07:51.814Z,62.37
2022-07-27T10:10:19.081Z,62.56
2022-07-27T10:12:51.945Z,63.72
2022-07-27T10:15:21.411Z,62.79
2022-07-27T10:17:53.518Z,63.06
2022-07-27T10:20:20.335Z,63.16
2022-07-27T10:22:52.792Z,62.59
2022-07-27T10:25:20.616Z,61.24
2022-07-27T10:27:49.429Z,61.36
2022-07-27T10:30:24.291Z,60.98
2022-07-27T10:32:54.577Z,62.05
2022-07-27T10:35:32.682Z,61.69
2022-07-27T10:38:11.129Z,61.41
2022-07-27T10:40:39.181Z,61.22
2022-07-27T10:43:18.395Z,60.96
2022-07-27T10:46:01.583Z,60.36
2022-07-27T10:48:37.750Z,60.63
2022-07-27T10:51:06.716Z,60.17
2022-07-27T10:54:10.808Z,59.23
2022-07-27T10:56:47.401Z,59.53
2022-07-27T10:59:14.142Z,59.53
2022-07-27T11:01:57.629Z,59.16
2022-07-27T11:04:25.226Z,59.72
2022-07-27T11:07:23.968Z,60.48
2022-07-27T11:10:07.632Z,59.72
2022-07-27T11:12:36.738Z,59.05
2022-07-27T11:15:04.145Z,57.84
2022-07-27T11:20:23.213Z,52.68
2022-07-27T11:25:36.475Z,50.77
2022-07-27T11:28:07.631Z,52.78
2022-07-27T11:30:34.487Z,53.51
2022-07-27T11:33:04.934Z,53.97
2022-07-27T11:35:34.459Z,54.19
2022-07-27T11:38:02.993Z,53.88
2022-07-27T11:41:12.842Z,53.47
2022-07-27T11:43:38.672Z,53.25
2022-07-27T11:46:18.229Z,52.40
2022-07-27T11:49:06.499Z,53.13
2022-07-27T11:51:44.863Z,52.39
2022-07-27T11:54:22.376Z,51.96
2022-07-27T11:57:00.955Z,51.60
2022-07-27T11:59:32.239Z,49.35
2022-07-27T12:02:03.073Z,47.06
2022-07-27T12:04:51.407Z,46.95
2022-07-27T12:07:21.968Z,47.63
2022-07-27T12:09:54.725Z,48.58
2022-07-27T12:12:26.886Z,50.43
2022-07-27T12:14:57.263Z,50.60
2022-07-27T12:17:30.795Z,51.38
2022-07-27T12:19:58.569Z,50.62
2022-07-27T12:22:28.861Z,49.92
2022-07-27T12:24:56.477Z,48.05
2022-07-27T12:27:23.626Z,48.36
2022-07-27T12:30:01.293Z,47.59
2022-07-27T12:32:31.865Z,47.81
2022-07-27T12:34:58.962Z,48.35
2022-07-27T12:37:32.467Z,48.50
2022-07-27T12:39:59.975Z,51.47
2022-07-27T12:42:36.967Z,50.87
2022-07-27T12:45:20.229Z,52.39
2022-07-27T12:47:46.997Z,54.48
2022-07-27T12:50:26.788Z,53.69
2022-07-27T12:52:54.247Z,52.82
2022-07-27T12:55:22.610Z,52.04
2022-07-27T12:57:56.200Z,52.13
2022-07-27T13:00:32.719Z,52.72
2022-07-27T13:03:00.853Z,51.73
2022-07-27T13:05:27.707Z,50.11
2022-07-27T13:07:54.422Z,47.20
2022-07-27T13:10:21.271Z,46.18
2022-07-27T13:12:48.749Z,47.54
2022-07-27T13:15:16.859Z,50.32
2022-07-27T13:17:44.317Z,50.76
2022-07-27T13:20:12.683Z,51.82
2022-07-27T13:22:40.386Z,52.40
2022-07-27T13:25:16.187Z,50.28
2022-07-27T13:27:44.660Z,48.92
2022-07-27T13:30:12.242Z,49.24
2022-07-27T13:32:40.212Z,49.28
2022-07-27T13:35:08.461Z,50.99
2022-07-27T13:37:35.177Z,51.71
2022-07-27T13:40:01.850Z,50.81
2022-07-27T13:42:28.606Z,49.87
2022-07-27T13:45:08.669Z,50.55
2022-07-27T13:47:37.291Z,50.54
2022-07-27T13:50:04.830Z,50.55
2022-07-27T13:52:31.476Z,50.95
2022-07-27T13:54:58.229Z,50.11
2022-07-27T13:57:24.878Z,49.38
2022-07-27T13:59:51.664Z,49.05
2022-07-27T14:02:20.477Z,49.56
2022-07-27T14:04:51.893Z,50.44
2022-07-27T14:07:18.509Z,50.55
2022-07-27T14:10:03.594Z,50.62
2022-07-27T14:12:30.585Z,50.43
2022-07-27T14:14:57.373Z,49.33
2022-07-27T14:17:24.251Z,49.77
2022-07-27T14:19:51.007Z,50.16
2022-07-27T14:22:17.649Z,50.50
2022-07-27T14:24:44.385Z,50.79
2022-07-27T14:27:11.156Z,50.48
2022-07-27T14:29:37.908Z,50.95
2022-07-27T14:32:06.002Z,50.51
2022-07-27T14:34:32.653Z,50.20
2022-07-27T14:36:59.600Z,49.13
2022-07-27T14:39:26.185Z,49.05
2022-07-27T14:41:52.912Z,49.00
2022-07-27T14:44:19.658Z,49.57
2022-07-27T14:46:47.229Z,49.75
2022-07-27T14:49:17.361Z,48.92
2022-07-27T14:51:44.404Z,49.82
2022-07-27T14:54:11.196Z,49.99
2022-07-27T14:56:37.968Z,50.42
2022-07-27T14:59:04.844Z,49.86
2022-07-27T15:01:32.005Z,49.68
2022-07-27T15:03:58.942Z,49.87
2022-07-27T15:06:25.905Z,49.96
2022-07-27T15:08:52.978Z,50.26
2022-07-27T15:11:19.827Z,50.61
2022-07-27T15:13:46.702Z,51.05
2022-07-27T15:16:13.584Z,50.14
2022-07-27T15:18:41.976Z,49.97
2022-07-27T15:21:12.716Z,49.52
2022-07-27T15:23:39.873Z,50.12
2022-07-27T15:26:06.634Z,49.96
2022-07-27T15:28:33.409Z,50.33
2022-07-27T15:31:00.051Z,50.13
2022-07-27T15:33:26.894Z,50.52
2022-07-27T15:35:53.963Z,50.46
2022-07-27T15:38:20.704Z,50.63
2022-07-27T15:40:47.888Z,51.14
2022-07-27T15:43:17.071Z,50.82
2022-07-27T15:45:47.825Z,50.32
2022-07-27T15:48:16.567Z,50.39
2022-07-27T15:50:48.543Z,49.85
2022-07-27T15:53:16.556Z,50.51
2022-07-27T15:55:44.665Z,50.40
2022-07-27T15:58:12.273Z,50.18
2022-07-27T16:00:41.009Z,49.99
2022-07-27T16:03:12.060Z,49.78
2022-07-27T16:05:40.524Z,50.86
2022-07-27T16:08:09.746Z,49.50
2022-07-27T16:10:38.202Z,49.25
2022-07-27T16:13:05.752Z,49.77
2022-07-27T16:15:51.639Z,50.27
2022-07-27T16:18:18.419Z,49.93
2022-07-27T16:20:45.172Z,49.57
2022-07-27T16:23:17.696Z,50.11
2022-07-27T16:26:04.526Z,49.70
2022-07-27T16:28:34.253Z,49.66
2022-07-27T16:31:01.612Z,49.19
2022-07-27T16:33:28.295Z,49.52
2022-07-27T16:35:55.019Z,49.92
2022-07-27T16:38:21.745Z,48.97
2022-07-27T16:40:48.467Z,49.37
2022-07-27T16:43:15.177Z,48.39
2022-07-27T16:45:41.915Z,48.96
2022-07-27T16:48:08.998Z,48.17
2022-07-27T16:50:35.727Z,47.54
2022-07-27T16:53:02.558Z,48.24
2022-07-27T16:55:30.221Z,48.99
2022-07-27T16:57:57.131Z,49.57
2022-07-27T17:00:23.874Z,49.51
2022-07-27T17:02:50.740Z,48.93
2022-07-27T17:05:17.503Z,48.81
2022-07-27T17:07:44.251Z,47.89
2022-07-27T17:10:10.950Z,48.68
2022-07-27T17:12:39.201Z,48.84
2022-07-27T17:15:07.406Z,47.61
2022-07-27T17:17:34.722Z,48.70
2022-07-27T17:20:01.766Z,49.06
2022-07-27T17:22:28.557Z,48.71
2022-07-27T17:24:55.380Z,48.76
2022-07-27T17:27:22.231Z,49.07
2022-07-27T17:29:49.319Z,48.99
2022-07-27T17:32:16.209Z,49.27
2022-07-27T17:34:43.553Z,49.17
2022-07-27T17:37:10.294Z,49.24
2022-07-27T17:39:37.690Z,49.01
2022-07-27T17:42:04.474Z,49.52
2022-07-27T17:44:32.471Z,49.39
2022-07-27T17:47:01.236Z,50.12
2022-07-27T17:49:28.467Z,49.87
2022-07-27T17:51:55.482Z,50.50
2022-07-27T17:54:23.569Z,50.25
2022-07-27T17:56:50.399Z,50.58
2022-07-27T17:59:37.052Z,50.10
2022-07-27T18:02:05.020Z,50.77
2022-07-27T18:04:37.027Z,50.93
2022-07-27T18:07:05.972Z,50.99
2022-07-27T18:09:32.758Z,50.53
2022-07-27T18:11:59.673Z,50.69
2022-07-27T18:14:26.527Z,51.00
2022-07-27T18:16:53.570Z,50.84
2022-07-27T18:19:20.269Z,51.17
2022-07-27T18:21:46.816Z,51.06
2022-07-27T18:24:13.456Z,50.64
2022-07-27T18:26:40.273Z,51.33
2022-07-27T18:29:07.987Z,51.54
2022-07-27T18:31:34.940Z,51.76
2022-07-27T18:34:02.745Z,51.48
2022-07-27T18:36:29.830Z,51.91
2022-07-27T18:38:57.908Z,52.20
2022-07-27T18:41:25.080Z,52.29
2022-07-27T18:43:51.684Z,52.54
2022-07-27T18:46:20.447Z,53.36
2022-07-27T18:48:47.861Z,52.97
2022-07-27T18:51:15.693Z,53.38
2022-07-27T18:53:44.296Z,53.61
2022-07-27T18:56:11.100Z,54.13
2022-07-27T18:58:38.186Z,54.52
2022-07-27T19:01:05.103Z,54.94
2022-07-27T19:03:32.217Z,55.11
2022-07-27T19:05:59.052Z,54.91
2022-07-27T19:08:25.708Z,54.72
2022-07-27T19:10:52.554Z,54.87
2022-07-27T19:13:19.133Z,55.09
2022-07-27T19:15:45.918Z,56.09
2022-07-27T19:18:12.974Z,56.53
2022-07-27T19:20:39.970Z,57.19
2022-07-27T19:23:07.349Z,57.58
2022-07-27T19:25:34.687Z,57.94
2022-07-27T19:28:02.798Z,59.30
2022-07-27T19:30:29.871Z,59.62
2022-07-27T19:32:56.632Z,60.45
2022-07-27T19:35:23.593Z,60.90
2022-07-27T19:37:50.340Z,60.64
2022-07-27T19:40:43.368Z,61.47
2022-07-27T19:43:05.027Z,61.67
2022-07-27T19:45:31.746Z,61.95
2022-07-27T19:47:59.534Z,62.07
2022-07-27T19:50:26.200Z,63.25
2022-07-27T19:52:52.945Z,64.32
2022-07-27T19:55:19.555Z,64.15
2022-07-27T19:57:46.162Z,64.11
2022-07-27T20:00:13.715Z,63.91
2022-07-27T20:02:40.453Z,64.90
2022-07-27T20:05:07.922Z,64.77
2022-07-27T20:07:34.627Z,65.15
2022-07-27T20:10:01.365Z,65.62
2022-07-27T20:12:27.989Z,65.14
2022-07-27T20:14:54.610Z,65.54
2022-07-27T20:17:21.189Z,64.91
2022-07-27T20:19:47.790Z,64.16
2022-07-27T20:22:14.425Z,64.10
2022-07-27T20:24:41.142Z,65.87
2022-07-27T20:27:07.864Z,65.71
2022-07-27T20:29:34.664Z,67.46
2022-07-27T20:32:01.300Z,68.12
2022-07-27T20:34:28.033Z,68.67
2022-07-27T20:36:55.550Z,68.40
2022-07-27T20:39:24.021Z,68.41
2022-07-27T20:41:51.079Z,69.05
2022-07-27T20:44:17.676Z,68.94
2022-07-27T20:46:44.409Z,69.70
2022-07-27T20:49:11.428Z,69.26
2022-07-27T20:51:39.575Z,69.84
2022-07-27T20:54:06.445Z,70.37
2022-07-27T20:56:33.068Z,70.67
2022-07-27T20:58:59.879Z,71.88
2022-07-27T21:01:26.643Z,72.42
2022-07-27T21:03:53.418Z,72.51
2022-07-27T21:06:19.991Z,71.77
2022-07-27T21:08:47.073Z,71.07
2022-07-27T21:11:14.161Z,71.31
2022-07-27T21:13:41.726Z,71.13
2022-07-27T21:16:08.868Z,71.57
2022-07-27T21:18:35.957Z,72.15
2022-07-27T21:21:02.602Z,72.59
2022-07-27T21:23:47.978Z,72.45
2022-07-27T21:26:14.697Z,73.08
2022-07-27T21:28:44.700Z,72.77
2022-07-27T21:31:11.260Z,72.98
2022-07-27T21:33:39.900Z,73.24
2022-07-27T21:36:07.214Z,73.39
2022-07-27T21:38:34.054Z,74.04
2022-07-27T21:41:00.736Z,74.36
2022-07-27T21:43:27.355Z,74.84
2022-07-27T21:45:54.033Z,74.54
2022-07-27T21:48:20.766Z,75.43
2022-07-27T21:50:47.375Z,75.96
2022-07-27T21:53:14.065Z,76.43
2022-07-27T21:55:41.148Z,77.24
2022-07-27T21:58:10.146Z,76.70
2022-07-27T22:00:37.453Z,77.14
2022-07-27T22:03:04.496Z,77.13
2022-07-27T22:05:31.353Z,77.42
2022-07-27T22:08:00.101Z,76.80
2022-07-27T22:10:31.153Z,77.70
2022-07-27T22:12:58.648Z,77.56
2022-07-27T22:15:25.806Z,78.49
2022-07-27T22:17:52.785Z,78.47
2022-07-27T22:20:21.282Z,78.01
2022-07-27T22:22:49.176Z,77.85
2022-07-27T22:25:16.539Z,78.45
2022-07-27T22:27:43.099Z,78.24
2022-07-27T22:30:10.308Z,77.97
2022-07-27T22:32:37.005Z,77.99
2022-07-27T22:35:04.561Z,78.14
2022-07-27T22:37:31.057Z,79.37
2022-07-27T22:39:57.639Z,79.58
2022-07-27T22:42:24.236Z,79.91
2022-07-27T22:44:50.887Z,79.72
2022-07-27T22:47:17.502Z,79.48
2022-07-27T22:49:44.277Z,79.30
2022-07-27T22:52:10.927Z,79.70
2022-07-27T22:54:38.418Z,79.72
2022-07-27T22:57:06.609Z,79.60
2022-07-27T22:59:34.287Z,79.52
2022-07-27T23:02:01.963Z,79.51
2022-07-27T23:04:28.742Z,79.50
2022-07-27T23:06:55.762Z,78.99
2022-07-27T23:09:23.396Z,79.33
2022-07-27T23:11:51.367Z,79.27
2022-07-27T23:14:19.031Z,78.53
2022-07-27T23:16:46.014Z,79.50
2022-07-27T23:19:12.830Z,78.99
2022-07-27T23:21:42.012Z,78.32
2022-07-27T23:24:10.294Z,79.16
2022-07-27T23:26:38.030Z,79.37
2022-07-27T23:29:04.640Z,78.62
2022-07-27T23:31:31.480Z,77.80
2022-07-27T23:33:58.233Z,77.22
2022-07-27T23:36:24.873Z,77.31
2022-07-27T23:38:51.467Z,76.29
2022-07-27T23:41:18.053Z,76.38
2022-07-27T23:43:45.051Z,76.16
2022-07-27T23:46:11.726Z,75.96
2022-07-27T23:48:38.391Z,75.46
2022-07-27T23:51:05.013Z,75.91
2022-07-27T23:53:31.845Z,75.40
2022-07-27T23:55:58.733Z,75.71
2022-07-27T23:58:25.418Z,75.29
